Terminal Aerodrome Forecast
Issued by NWS Knoxville/Tri Cities, TN

Home | Current Version | Previous Version | Text Only | Print | Product List | Glossary On
Versions: 1 2 3 4 5 6 7 8 9 10 11 12 13 14 15 16 17 18 19 20 21
000
FTUS44 KMRX 251720
TAFTYS
TAF
KTYS 251720Z 2518/2618 31008KT P6SM VCSH SCT025 BKN035 BKN060
     FM260200 VRB03KT P6SM BKN060
     FM260900 00000KT 5SM BR OVC025
     FM261200 06004KT P6SM OVC045
     FM261500 VRB03KT 6SM -SHRA BR OVC025=

USA.gov is the U.S. government's official web portal to all federal, state and local government web resources and services.